Augustenborg, Denmark
Current Conditions -  °F | °C
As of 12:51 PM on Sunday 25 Jan 2015 (Local Time) from EKSB Reporting Station
Broken Clouds Broken Clouds  
Wind Chill: 34°   Ceiling: 8000
Heat Index: 39°   Visibility: 6mi
Dew Point: 36°   Wind: 7mph
Humidity: 87%   Direction: 230°SW
Pressure: 30.21"   Gusts: NA
Location:  54.95°N, 9.87°E
Report Text: EKSB 251151Z 23006KT 9999 FEW030 BKN080 04/02 Q1023
Loading
Personal Weather Stations






























Interactive Weather Map New forecast layout! Learn more

10-Day Weather Forecast

Advertisements
Track Severe Weather on mobile